Startpagina
METAR-TAF:

METAR-TAF

Vliegvelden :

Caracas, Venezuela

Aeropuerto Internacional de Maiquetía Simón Bolívar

breedte: 10-36N, lengte: 066-59W, hoogte: 43 m

Actueel weer

Dit bericht is 24 minuten geleden gemaakt, om 10:00 UTC
Wind 2 kt uit het noordoosten
Temperatuur 27°C
Vochtigheid 70%
Druk 1011 hPa
Zicht 10 km of meer
Verspreide wolken op 1600 ft

METAR: SVMI 211000Z 05002KT 9999 SCT016 27/21 Q1011

Tijdstip: 06:24 (10:24 UTC)

Verwachting

Dit bericht is 6 uur en het 24 minuten geleden gemaakt, om 04:00 UTC
Verwachting geldig van 21 om 06 UTC tot 22 om 06 UTC
Wind 5 kt uit het noordoosten
Zicht 10 km of meer
Weinig wolken op 1600 ft
Wijzigt naar
van 21 om 06 UTC tot 21 om 10 UTC
Wind kt uit het noorden
Zicht: 9000 m
Verspreide wolken op 1600 ft
motregen

TAF: SVMI 210400Z 2106/2206 05005KT 9999 FEW016 TX32/18Z TN25/19Z BECMG 2106/2110 00000KT 9000 DZ SCT016

Waarnemingen en weersverwachtingen van meer dan 4000 vliegvelden (METAR en TAF).

De beschikbare stations zijn de gele en rode punten op de kaart.

Ga met uw muis naar het station om de naam te zien.

Klik dan om waarnemingen en weersverwachtingen te zien.

kaart wijzigen: klik op de groene knoppen met een zwart kruis om in te zoomen, op de groene knop met een streepje om uit te zoomen of op de groene pijlen voor aangrenzende kaarten.


METAR-TAF: